YBRM

Details ICAO YBRM
Name Broome Intl
Region Australia
Timezone Australia/Perth (UTC+8.0)
Plans Departing 103
Arriving 108
Stats Elevation 56 ft / 17 m (AMSL)
Location -17.948745° 122.227225°
Runways 1
Magnetic Variation 1.768° E
Sunrise 2018-05-20 22:12:34 UTC / 2018-05-21 06:12:34 Local
Sunset 2018-05-21 09:25:36 UTC / 2018-05-21 17:25:36 Local
Advertisement - Login to hide

Runways

ID Width Length Bearing (true) Bearing (mag) Surface Threshold Offset Overrun Length
10 148 ft / 45 m 8,325 ft / 2,537 m 105.60° 103.83° Asphalt 292 ft / 89 m 52 ft / 16 m
28 148 ft / 45 m 8,325 ft / 2,537 m 285.60° 283.83° Asphalt 666 ft / 203 m 0 ft / 0 m

Map

Weather


0- 5 10 15 20 25 30 35+ Temperature / ° C

Clouds and Precipitation
Forecast for 2018-05-21 12:00 UTC. Updated 7 minutes ago

Ground ~20,000 ft ~40,000 ft Winds

METAR

YBRM 211100Z AUTO 13007KT //// // NCD 24/09 Q1016

TAF

TAF YBRM 210503Z 2106/2206 10014KT CAVOK FM220100 09017G27KT CAVOK FM220400 09014KT CAVOK

Frequencies

Recorded 126.55 MHz YBRM ATIS
Unicom 123.90 MHz BRISBANE CENTRE MULT
Unicom 119.60 MHz ACTIVATE LIGHTS ONLY MULT
Unicom 126.00 MHz BROOME RADIO MULT
Warning: Do not use this data for real-world aviation or navigation. No guarantee of current accuracy is given.